createdAt,value
2022-11-13T00:02:22.213Z,6.50
2022-11-13T00:07:43.673Z,6.60
2022-11-13T00:13:04.834Z,6.60
2022-11-13T00:18:26.601Z,6.60
2022-11-13T00:23:47.744Z,6.50
2022-11-13T00:29:09.531Z,6.50
2022-11-13T00:34:47.141Z,6.50
2022-11-13T00:40:10.104Z,6.50
2022-11-13T00:45:31.214Z,6.50
2022-11-13T00:50:52.355Z,6.40
2022-11-13T00:56:13.405Z,6.40
2022-11-13T01:01:34.996Z,6.20
2022-11-13T01:06:56.486Z,6.20
2022-11-13T01:12:18.093Z,6.20
2022-11-13T01:17:39.367Z,6.40
2022-11-13T01:23:00.565Z,6.40
2022-11-13T01:28:21.555Z,6.50
2022-11-13T01:33:43.983Z,6.50
2022-11-13T01:39:05.935Z,6.40
2022-11-13T01:44:46.761Z,6.50
2022-11-13T01:50:15.150Z,6.40
2022-11-13T01:55:37.093Z,6.30
2022-11-13T02:00:58.310Z,6.20
2022-11-13T02:06:21.863Z,6.20
2022-11-13T02:11:43.445Z,6.20
2022-11-13T02:17:08.780Z,6.20
2022-11-13T02:22:52.338Z,6.20
2022-11-13T02:28:13.535Z,6.20
2022-11-13T02:33:34.865Z,6.20
2022-11-13T02:38:59.319Z,6.10
2022-11-13T02:44:20.258Z,6.20
2022-11-13T02:49:41.709Z,6.20
2022-11-13T02:55:02.606Z,6.00
2022-11-13T03:00:24.132Z,5.90
2022-11-13T03:05:50.250Z,6.10
2022-11-13T03:11:11.922Z,6.10
2022-11-13T03:16:34.822Z,6.10
2022-11-13T03:21:56.176Z,6.10
2022-11-13T03:27:17.212Z,5.90
2022-11-13T03:32:38.456Z,5.90
2022-11-13T03:37:59.453Z,5.90
2022-11-13T03:43:20.544Z,5.90
2022-11-13T03:48:42.070Z,5.80
2022-11-13T03:54:04.041Z,5.80
2022-11-13T03:59:25.042Z,5.80
2022-11-13T04:04:46.063Z,5.90
2022-11-13T04:10:07.580Z,6.00
2022-11-13T04:15:28.614Z,5.90
2022-11-13T04:20:50.089Z,5.80
2022-11-13T04:26:11.429Z,5.70
2022-11-13T04:31:32.720Z,5.70
2022-11-13T04:36:53.806Z,5.70
2022-11-13T04:42:33.585Z,5.70
2022-11-13T04:47:55.081Z,5.60
2022-11-13T04:53:16.234Z,5.60
2022-11-13T04:58:38.313Z,5.50
2022-11-13T05:03:59.389Z,5.50
2022-11-13T05:09:20.791Z,5.40
2022-11-13T05:14:41.833Z,5.40
2022-11-13T05:20:02.900Z,5.40
2022-11-13T05:25:24.046Z,5.40
2022-11-13T05:30:45.126Z,5.40
2022-11-13T05:36:09.610Z,5.50
2022-11-13T05:41:30.918Z,5.40
2022-11-13T05:46:52.286Z,5.40
2022-11-13T05:52:13.598Z,5.30
2022-11-13T05:57:35.077Z,5.20
2022-11-13T06:02:56.162Z,5.20
2022-11-13T06:08:17.206Z,5.20
2022-11-13T06:13:38.907Z,5.10
2022-11-13T06:19:02.273Z,5.20
2022-11-13T06:24:23.597Z,5.20
2022-11-13T06:29:45.117Z,5.10
2022-11-13T06:35:06.642Z,5.20
2022-11-13T06:40:27.709Z,5.00
2022-11-13T06:45:48.878Z,5.20
2022-11-13T06:51:14.618Z,5.20
2022-11-13T06:56:35.756Z,5.20
2022-11-13T07:01:57.013Z,5.10
2022-11-13T07:07:18.086Z,4.80
2022-11-13T07:12:39.407Z,4.90
2022-11-13T07:18:05.088Z,5.10
2022-11-13T07:23:26.538Z,5.30
2022-11-13T07:28:48.320Z,5.20
2022-11-13T07:34:09.723Z,5.30
2022-11-13T07:39:31.141Z,5.10
2022-11-13T07:44:55.749Z,5.10
2022-11-13T07:50:17.415Z,5.40
2022-11-13T07:55:38.403Z,5.40
2022-11-13T08:01:04.475Z,5.60
2022-11-13T08:06:27.904Z,5.60
2022-11-13T08:11:49.274Z,5.60
2022-11-13T08:17:10.443Z,5.50
2022-11-13T08:22:31.684Z,5.60
2022-11-13T08:27:54.756Z,5.40
2022-11-13T08:33:16.076Z,5.50
2022-11-13T08:38:37.955Z,5.60
2022-11-13T08:43:59.322Z,5.60
2022-11-13T08:49:20.396Z,5.80
2022-11-13T08:54:42.188Z,5.70
2022-11-13T09:00:03.521Z,5.70
2022-11-13T09:05:25.237Z,6.00
2022-11-13T09:10:46.759Z,6.00
2022-11-13T09:16:07.977Z,5.90
2022-11-13T09:21:29.246Z,6.20
2022-11-13T09:26:50.317Z,6.60
2022-11-13T09:32:11.477Z,6.70
2022-11-13T09:37:32.959Z,6.70
2022-11-13T09:42:54.256Z,6.70
2022-11-13T09:48:31.563Z,6.80
2022-11-13T09:53:53.675Z,6.90
2022-11-13T09:59:34.980Z,6.90
2022-11-13T10:05:26.079Z,6.80
2022-11-13T10:10:52.058Z,7.00
2022-11-13T10:16:32.783Z,6.80
2022-11-13T10:22:32.821Z,7.10
2022-11-13T10:28:15.841Z,7.30
2022-11-13T10:33:42.567Z,7.30
2022-11-13T10:39:08.520Z,7.70
2022-11-13T10:44:34.290Z,7.80
2022-11-13T10:49:56.536Z,7.90
2022-11-13T10:55:39.735Z,7.70
2022-11-13T11:01:01.354Z,8.00
2022-11-13T11:07:05.007Z,8.00
2022-11-13T11:12:30.263Z,7.90
2022-11-13T11:17:54.866Z,7.70
2022-11-13T11:23:37.224Z,7.80
2022-11-13T11:29:25.736Z,8.10
2022-11-13T11:34:58.818Z,8.00
2022-11-13T11:40:36.458Z,8.20
2022-11-13T11:45:57.596Z,8.30
2022-11-13T11:51:47.835Z,8.50
2022-11-13T11:57:38.856Z,8.50
2022-11-13T12:03:39.727Z,8.20
2022-11-13T12:09:19.336Z,8.30
2022-11-13T12:15:05.057Z,8.70
2022-11-13T12:20:35.055Z,8.90
2022-11-13T12:26:23.771Z,8.60
2022-11-13T12:32:13.335Z,8.50
2022-11-13T12:37:51.369Z,8.50
2022-11-13T12:43:33.747Z,8.30
2022-11-13T12:48:55.257Z,8.20
2022-11-13T12:54:26.563Z,8.20
2022-11-13T12:59:56.858Z,8.40
2022-11-13T13:05:26.488Z,8.20
2022-11-13T13:11:12.174Z,7.90
2022-11-13T13:16:33.196Z,7.90
2022-11-13T13:21:54.860Z,8.10
2022-11-13T13:27:42.584Z,8.30
2022-11-13T13:33:17.230Z,8.00
2022-11-13T13:38:56.325Z,7.90
2022-11-13T13:44:36.163Z,7.80
2022-11-13T13:49:58.241Z,7.80
2022-11-13T13:55:28.977Z,7.50
2022-11-13T14:01:18.443Z,7.50
2022-11-13T14:06:52.407Z,7.60
2022-11-13T14:12:22.192Z,7.60
2022-11-13T14:17:44.749Z,7.70
2022-11-13T14:23:06.214Z,7.60
2022-11-13T14:28:30.328Z,7.50
2022-11-13T14:33:52.069Z,7.30
2022-11-13T14:39:44.908Z,7.20
2022-11-13T14:45:17.414Z,7.20
2022-11-13T14:50:50.396Z,7.20
2022-11-13T14:56:12.686Z,7.10
2022-11-13T15:01:34.218Z,7.20
2022-11-13T15:07:00.840Z,7.00
2022-11-13T15:12:22.675Z,6.90
2022-11-13T15:17:46.282Z,6.70
2022-11-13T15:23:12.725Z,6.80
2022-11-13T15:28:33.955Z,6.80
2022-11-13T15:33:55.125Z,6.70
2022-11-13T15:39:23.449Z,6.70
2022-11-13T15:44:46.344Z,6.70
2022-11-13T15:50:16.193Z,6.70
2022-11-13T15:55:40.183Z,6.80
2022-11-13T16:01:01.406Z,6.80
2022-11-13T16:06:24.017Z,6.70
2022-11-13T16:11:45.263Z,6.70
2022-11-13T16:17:20.389Z,6.60
2022-11-13T16:22:42.616Z,6.50
2022-11-13T16:28:04.310Z,6.50
2022-11-13T16:33:25.244Z,6.40
2022-11-13T16:38:46.655Z,6.40
2022-11-13T16:44:07.600Z,6.40
2022-11-13T16:49:28.699Z,6.30
2022-11-13T16:54:52.809Z,6.20
2022-11-13T17:00:16.640Z,6.20
2022-11-13T17:05:37.978Z,6.30
2022-11-13T17:10:59.774Z,6.30
2022-11-13T17:16:22.445Z,6.30
2022-11-13T17:21:44.553Z,6.30
2022-11-13T17:27:06.986Z,6.30
2022-11-13T17:32:28.482Z,6.30
2022-11-13T17:37:49.844Z,6.20
2022-11-13T17:43:11.479Z,6.20
2022-11-13T17:48:34.397Z,6.20
2022-11-13T17:53:58.806Z,6.10
2022-11-13T17:59:20.226Z,6.20
2022-11-13T18:04:41.287Z,6.20
2022-11-13T18:10:02.661Z,6.10
2022-11-13T18:15:24.914Z,6.10
2022-11-13T18:20:46.386Z,6.20
2022-11-13T18:26:16.625Z,6.10
2022-11-13T18:31:37.985Z,6.10
2022-11-13T18:36:59.830Z,6.10
2022-11-13T18:42:20.976Z,6.10
2022-11-13T18:47:42.703Z,6.20
2022-11-13T18:53:04.035Z,6.20
2022-11-13T18:58:25.087Z,6.10
2022-11-13T19:04:08.220Z,6.10
2022-11-13T19:09:28.384Z,6.20
2022-11-13T19:14:49.835Z,6.10
2022-11-13T19:20:11.195Z,6.10
2022-11-13T19:25:32.655Z,6.20
2022-11-13T19:30:56.814Z,6.10
2022-11-13T19:36:19.190Z,6.10
2022-11-13T19:41:40.294Z,6.20
2022-11-13T19:47:01.285Z,6.20
2022-11-13T19:52:23.593Z,6.20
2022-11-13T19:57:46.237Z,6.10
2022-11-13T20:03:08.061Z,6.10
2022-11-13T20:08:29.633Z,6.10
2022-11-13T20:13:51.102Z,6.20
2022-11-13T20:19:12.224Z,6.20
2022-11-13T20:24:33.543Z,6.20
2022-11-13T20:29:55.197Z,6.10
2022-11-13T20:35:16.820Z,6.10
2022-11-13T20:40:37.926Z,6.20
2022-11-13T20:46:12.942Z,6.10
2022-11-13T20:51:34.046Z,6.20
2022-11-13T20:56:55.056Z,6.00
2022-11-13T21:02:16.442Z,5.90
2022-11-13T21:07:37.496Z,5.90
2022-11-13T21:12:58.848Z,5.90
2022-11-13T21:18:20.996Z,5.80
2022-11-13T21:23:42.574Z,5.80
2022-11-13T21:29:03.897Z,5.90
2022-11-13T21:34:25.538Z,5.90
2022-11-13T21:39:46.408Z,5.90
2022-11-13T21:45:08.385Z,5.90
2022-11-13T21:50:29.935Z,5.90
2022-11-13T21:55:51.758Z,6.00
2022-11-13T22:01:15.245Z,6.00
2022-11-13T22:06:36.770Z,6.00
2022-11-13T22:11:58.315Z,6.00
2022-11-13T22:17:19.855Z,6.00
2022-11-13T22:22:40.996Z,5.90
2022-11-13T22:28:02.298Z,5.90
2022-11-13T22:33:26.270Z,5.90
2022-11-13T22:38:48.093Z,6.00
2022-11-13T22:44:13.291Z,6.00
2022-11-13T22:49:34.551Z,6.00
2022-11-13T22:54:55.769Z,6.00
2022-11-13T23:00:17.582Z,6.10
2022-11-13T23:05:38.672Z,6.10
2022-11-13T23:10:59.812Z,6.10
2022-11-13T23:16:23.036Z,6.10
2022-11-13T23:21:46.476Z,6.00
2022-11-13T23:27:07.641Z,6.00
2022-11-13T23:32:28.743Z,6.00
2022-11-13T23:37:49.841Z,6.00
2022-11-13T23:43:11.103Z,6.00
2022-11-13T23:48:32.262Z,6.00
2022-11-13T23:53:53.314Z,6.10
2022-11-13T23:59:14.540Z,6.10
